Terminal Aerodrome Forecast
Issued by NWS Sterling, VA

Current Version | Previous Version | Text Only | Print | Product List | Glossary Off
Versions: 1 2 3 4 5 6 7 8 9 10 11 12 13 14 15 16 17 18 19 20 21 22 23

000
FTUS41 KLWX 160540
TAFDCA
TAF
KDCA 160540Z 1606/1706 03004KT P6SM SCT200
     FM161400 10006KT P6SM SCT200
     FM161700 15010G17KT P6SM SCT150
     FM162300 15006KT P6SM SCT050 BKN110=

USA.gov is the U.S. government's official web portal to all federal, state and local government web resources and services.